Time;durP1;ratioP1;P1;durP2;ratioP2;P2;SDS_P1;SDS_P2;PMS_P1;PMS_P2;Temp;Humidity;BMP_temperature;BMP_pressure;BME280_temperature;BME280_humidity;BME280_pressure;Samples;Min_cycle;Max_cycle;Signal;HPM_P1;HPM_P2
2023/05/26 00:01:57;;;;;;;;;;;;;;;14.01;36.84;101563.81;4955646;28;98022;-66
2023/05/26 00:04:25;;;;;;;;;;;;;;;14.02;36.65;101554.59;4938120;28;98207;-69
2023/05/26 00:06:55;;;;;;;;;;;;;;;14.05;36.70;101550.53;4946438;27;98575;-69
2023/05/26 00:09:21;;;;;;;;;;;;;;;14.07;36.49;101549.22;4944539;28;99381;-68
2023/05/26 00:11:48;;;;;;;;;;;;;;;14.07;36.56;101553.78;4944927;28;99181;-69
2023/05/26 00:14:15;;;;;;;;;;;;;;;14.06;36.64;101557.59;4940594;27;98582;-69
2023/05/26 00:16:43;;;;;;;;;;;;;;;14.03;36.46;101555.41;4945775;27;98057;-69
2023/05/26 00:19:09;;;;;;;;;;;;;;;14.01;36.51;101561.09;4944389;28;98031;-69
2023/05/26 00:21:36;;;;;;;;;;;;;;;13.99;36.47;101564.09;4961931;27;98978;-69
2023/05/26 00:24:03;;;;;;;;;;;;;;;13.98;36.88;101564.31;4960419;28;97974;-69
2023/05/26 00:26:29;;;;;;;;;;;;;;;13.94;36.76;101558.63;4954764;28;99720;-62
2023/05/26 00:28:56;;;;;;;;;;;;;;;13.92;36.79;101565.41;4942058;27;98215;-63
2023/05/26 00:31:22;;;;;;;;;;;;;;;13.91;36.74;101563.75;4960433;27;98127;-69
2023/05/26 00:33:49;;;;;;;;;;;;;;;13.86;36.69;101561.81;4943899;28;98486;-69
2023/05/26 00:36:16;;;;;;;;;;;;;;;13.86;36.75;101566.44;4940292;27;98199;-69
2023/05/26 00:38:42;;;;;;;;;;;;;;;13.82;36.63;101568.84;4944644;27;98196;-62
2023/05/26 00:41:09;;;;;;;;;;;;;;;13.78;36.95;101562.31;4946680;28;98024;-63
2023/05/26 00:43:35;;;;;;;;;;;;;;;13.72;36.99;101560.69;4938015;27;97896;-63
2023/05/26 00:46:01;;;;;;;;;;;;;;;13.67;36.92;101561.44;4961577;27;97945;-63
2023/05/26 00:48:27;;;;;;;;;;;;;;;13.61;36.79;101564.41;4958235;28;98350;-69
2023/05/26 00:50:53;;;;;;;;;;;;;;;13.58;36.66;101559.50;4941940;27;98074;-63
2023/05/26 00:53:19;;;;;;;;;;;;;;;13.55;36.96;101555.41;4960400;28;99667;-69
2023/05/26 00:55:48;;;;;;;;;;;;;;;13.51;37.08;101552.41;4926579;27;98531;-69
2023/05/26 00:58:14;;;;;;;;;;;;;;;13.49;36.83;101567.31;4959613;28;98334;-63
2023/05/26 01:00:41;;;;;;;;;;;;;;;13.45;36.80;101564.28;4945992;27;98234;-69
2023/05/26 01:03:07;;;;;;;;;;;;;;;13.38;37.02;101558.28;4940808;27;98024;-69
2023/05/26 01:05:34;;;;;;;;;;;;;;;13.28;36.86;101555.47;4947089;27;99146;-62
2023/05/26 01:08:02;;;;;;;;;;;;;;;13.21;37.09;101558.41;4945739;27;99517;-63
2023/05/26 01:10:31;;;;;;;;;;;;;;;13.14;37.03;101552.38;4959942;27;98126;-69
2023/05/26 01:13:00;;;;;;;;;;;;;;;13.09;36.94;101555.03;4927526;27;98412;-62
2023/05/26 01:15:31;;;;;;;;;;;;;;;13.01;37.11;101553.63;4938244;27;101093;-63
2023/05/26 01:18:13;;;;;;;;;;;;;;;12.95;36.78;101551.94;4940892;27;97922;-62
2023/05/26 01:21:08;;;;;;;;;;;;;;;12.89;36.81;101552.97;4945919;27;99944;-62
2023/05/26 01:24:02;;;;;;;;;;;;;;;12.84;37.01;101552.09;4946787;27;100248;-69
2023/05/26 01:26:45;;;;;;;;;;;;;;;12.81;36.83;101563.41;4975892;28;98132;-63
2023/05/26 01:29:15;;;;;;;;;;;;;;;12.76;37.05;101556.06;4958086;27;98523;-69
2023/05/26 01:31:41;;;;;;;;;;;;;;;12.74;36.90;101555.53;4922145;27;98058;-69
2023/05/26 01:34:08;;;;;;;;;;;;;;;12.71;37.04;101556.84;4925689;28;108333;-62
2023/05/26 01:36:38;;;;;;;;;;;;;;;12.68;36.88;101565.47;4944807;27;98046;-69
2023/05/26 01:39:05;;;;;;;;;;;;;;;12.65;37.28;101565.97;4942306;27;99574;-62
2023/05/26 01:41:40;;;;;;;;;;;;;;;12.65;36.93;101565.97;4945900;27;99059;-62
2023/05/26 01:44:13;;;;;;;;;;;;;;;12.67;37.02;101565.72;4941305;28;99472;-62
2023/05/26 01:46:49;;;;;;;;;;;;;;;12.68;37.06;101565.47;4947410;27;98140;-69
2023/05/26 01:49:15;;;;;;;;;;;;;;;12.69;36.92;101568.97;4948766;28;98032;-69
2023/05/26 01:51:46;;;;;;;;;;;;;;;12.66;36.92;101561.41;4960180;28;99077;-69
2023/05/26 01:54:12;;;;;;;;;;;;;;;12.67;36.83;101571.94;4941854;27;98406;-62
2023/05/26 01:56:38;;;;;;;;;;;;;;;12.67;36.97;101571.13;4946324;27;98372;-68
2023/05/26 01:59:04;;;;;;;;;;;;;;;12.67;37.11;101571.13;4942936;27;98430;-69
2023/05/26 02:01:33;;;;;;;;;;;;;;;12.64;36.94;101569.75;4947373;27;98228;-69
2023/05/26 02:04:00;;;;;;;;;;;;;;;12.62;36.90;101562.97;4962358;27;97986;-62
2023/05/26 02:06:27;;;;;;;;;;;;;;;12.62;36.95;101565.69;4961229;27;98775;-69
2023/05/26 02:08:53;;;;;;;;;;;;;;;12.61;36.96;101564.03;4946768;27;97866;-69
2023/05/26 02:11:19;;;;;;;;;;;;;;;12.61;37.07;101562.13;4949328;28;99857;-62
2023/05/26 02:13:45;;;;;;;;;;;;;;;12.60;36.98;101560.50;4947679;27;100211;-69
2023/05/26 02:16:13;;;;;;;;;;;;;;;12.59;37.19;101555.38;4936469;28;98271;-62
2023/05/26 02:18:40;;;;;;;;;;;;;;;12.58;37.09;101559.97;4942744;28;98278;-65
2023/05/26 02:21:06;;;;;;;;;;;;;;;12.57;36.91;101562.91;4929292;27;98916;-70
2023/05/26 02:23:34;;;;;;;;;;;;;;;12.57;36.95;101560.19;4947347;27;116613;-68
2023/05/26 02:26:00;;;;;;;;;;;;;;;12.57;36.99;101560.19;4948293;27;98335;-62
2023/05/26 02:28:26;;;;;;;;;;;;;;;12.58;36.88;101556.44;4960617;27;97813;-63
2023/05/26 02:30:53;;;;;;;;;;;;;;;12.59;37.02;101563.47;4942151;27;99948;-69
2023/05/26 02:33:19;;;;;;;;;;;;;;;12.60;37.01;101562.41;4940649;27;98060;-63
2023/05/26 02:35:45;;;;;;;;;;;;;;;12.61;37.12;101569.44;4962010;27;98590;-62
2023/05/26 02:38:12;;;;;;;;;;;;;;;12.62;37.13;101571.91;4979554;27;97962;-62
2023/05/26 02:40:38;;;;;;;;;;;;;;;12.64;37.18;101571.63;4943508;27;100034;-63
2023/05/26 02:43:04;;;;;;;;;;;;;;;12.65;36.99;101571.38;4960799;28;99806;-69
2023/05/26 02:45:30;;;;;;;;;;;;;;;12.69;37.03;101582.50;4947822;28;97919;-62
2023/05/26 02:47:56;;;;;;;;;;;;;;;12.71;37.04;101581.19;4943904;27;99723;-69
2023/05/26 02:50:22;;;;;;;;;;;;;;;12.73;37.06;101583.63;4958960;28;98370;-62
2023/05/26 02:52:48;;;;;;;;;;;;;;;12.73;36.97;101579.06;4946850;27;98197;-69
2023/05/26 02:55:14;;;;;;;;;;;;;;;12.73;37.05;101581.78;4965068;27;97961;-63
2023/05/26 02:57:41;;;;;;;;;;;;;;;12.72;37.00;101574.69;4930063;27;97995;-63
2023/05/26 03:00:10;;;;;;;;;;;;;;;12.70;36.98;101568.75;4961019;27;98484;-64
2023/05/26 03:02:37;;;;;;;;;;;;;;;12.69;36.95;101566.28;4933723;27;98066;-62
2023/05/26 03:05:07;;;;;;;;;;;;;;;12.68;37.09;101570.88;4946482;28;99384;-69
2023/05/26 03:07:33;;;;;;;;;;;;;;;12.65;37.02;101565.16;4947985;28;97965;-62
2023/05/26 03:10:00;;;;;;;;;;;;;;;12.61;37.16;101562.13;4940577;27;98957;-69
2023/05/26 03:12:27;;;;;;;;;;;;;;;12.60;37.01;101568.63;4946277;27;99296;-62
2023/05/26 03:14:54;;;;;;;;;;;;;;;12.59;37.19;101571.59;4942169;28;98847;-69
2023/05/26 03:17:20;;;;;;;;;;;;;;;12.58;37.15;101572.69;4958419;27;98100;-63
2023/05/26 03:19:46;;;;;;;;;;;;;;;12.61;37.08;101569.44;4945810;28;98167;-69
2023/05/26 03:22:13;;;;;;;;;;;;;;;12.61;37.20;101577.56;4947078;27;99516;-69
2023/05/26 03:24:39;;;;;;;;;;;;;;;12.61;37.14;101564.03;4945376;27;99051;-69
2023/05/26 03:27:06;;;;;;;;;;;;;;;12.63;37.28;101564.59;4942434;27;98361;-62
2023/05/26 03:29:33;;;;;;;;;;;;;;;12.63;37.06;101564.59;4976447;27;98011;-69
2023/05/26 03:31:59;;;;;;;;;;;;;;;12.64;37.17;101568.94;4946000;27;97893;-69
2023/05/26 03:34:25;;;;;;;;;;;;;;;12.62;37.23;101568.41;4945882;27;99411;-62
2023/05/26 03:36:54;;;;;;;;;;;;;;;12.62;36.82;101571.09;4949050;27;98228;-69
2023/05/26 03:39:21;;;;;;;;;;;;;;;12.63;37.20;101567.31;4929560;27;98028;-69
2023/05/26 03:41:48;;;;;;;;;;;;;;;12.63;37.14;101565.41;4977454;27;98244;-62
2023/05/26 03:44:19;;;;;;;;;;;;;;;12.63;37.06;101562.72;4944805;28;98079;-69
2023/05/26 03:46:46;;;;;;;;;;;;;;;12.64;37.05;101568.94;4948254;27;98083;-69
2023/05/26 03:49:12;;;;;;;;;;;;;;;12.67;37.23;101571.13;4946747;27;98110;-62
2023/05/26 03:51:39;;;;;;;;;;;;;;;12.70;37.24;101573.34;4946504;27;98150;-63
2023/05/26 03:54:05;;;;;;;;;;;;;;;12.74;37.26;101569.06;4943043;28;98136;-63
2023/05/26 03:56:32;;;;;;;;;;;;;;;12.75;37.08;101568.78;4947978;27;97914;-62
2023/05/26 03:58:58;;;;;;;;;;;;;;;12.80;37.07;101568.03;4945988;27;98015;-63
2023/05/26 04:01:25;;;;;;;;;;;;;;;12.84;37.14;101574.56;4926449;28;98534;-63
2023/05/26 04:03:51;;;;;;;;;;;;;;;12.88;37.04;101569.44;4946251;27;99444;-63
2023/05/26 04:06:18;;;;;;;;;;;;;;;12.91;36.99;101575.16;4960540;27;99166;-63
2023/05/26 04:08:47;;;;;;;;;;;;;;;12.94;37.13;101569.25;4963996;27;98311;-70
2023/05/26 04:11:13;;;;;;;;;;;;;;;12.95;37.00;101562.75;4961472;27;99713;-69
2023/05/26 04:13:40;;;;;;;;;;;;;;;12.96;37.11;101567.09;4961677;28;98102;-70
2023/05/26 04:16:06;;;;;;;;;;;;;;;13.00;36.92;101572.81;4939483;27;98139;-70
2023/05/26 04:18:33;;;;;;;;;;;;;;;13.02;37.10;101563.38;4956271;28;98229;-63
2023/05/26 04:20:59;;;;;;;;;;;;;;;13.06;36.88;101571.78;4939297;27;98315;-70
2023/05/26 04:23:26;;;;;;;;;;;;;;;13.09;37.04;101573.19;4938537;27;99074;-70
2023/05/26 04:25:55;;;;;;;;;;;;;;;13.12;37.15;101567.22;4959123;27;98243;-70
2023/05/26 04:28:24;;;;;;;;;;;;;;;13.16;37.29;101576.47;4940625;27;98326;-63
2023/05/26 04:30:53;;;;;;;;;;;;;;;13.20;36.93;101577.59;4944486;27;98396;-70
2023/05/26 04:33:20;;;;;;;;;;;;;;;13.25;37.12;101583.09;4942234;28;99389;-63
2023/05/26 04:35:47;;;;;;;;;;;;;;;13.30;37.00;101585.03;4946744;28;98026;-70
2023/05/26 04:38:15;;;;;;;;;;;;;;;13.35;36.85;101595.88;4939952;27;98024;-63
2023/05/26 04:40:42;;;;;;;;;;;;;;;13.40;36.84;101595.91;4957569;27;99969;-70
2023/05/26 04:43:10;;;;;;;;;;;;;;;13.44;37.03;101603.28;4937842;27;98156;-63
2023/05/26 04:45:37;;;;;;;;;;;;;;;13.50;36.99;101599.53;4928566;27;99428;-70
2023/05/26 04:48:05;;;;;;;;;;;;;;;13.58;36.83;101598.22;4942383;28;98271;-70
2023/05/26 04:50:32;;;;;;;;;;;;;;;13.65;36.76;101598.03;4925055;27;99722;-69
2023/05/26 04:52:59;;;;;;;;;;;;;;;13.72;37.04;101594.00;4937911;27;98309;-63
2023/05/26 04:55:25;;;;;;;;;;;;;;;13.82;36.83;101611.41;4937220;28;100506;-69
2023/05/26 04:57:51;;;;;;;;;;;;;;;13.88;36.71;101602.25;4942398;27;98255;-63
2023/05/26 05:00:18;;;;;;;;;;;;;;;13.97;36.88;101601.47;4956408;27;99031;-70
2023/05/26 05:02:45;;;;;;;;;;;;;;;14.08;37.10;101609.66;4940901;27;98430;-70
2023/05/26 05:05:11;;;;;;;;;;;;;;;14.20;36.74;101610.28;4918711;27;100141;-69
2023/05/26 05:07:38;;;;;;;;;;;;;;;14.36;36.35;101611.16;4939102;27;98136;-63
2023/05/26 05:10:05;;;;;;;;;;;;;;;14.55;36.60;101611.53;4940358;28;98396;-69
2023/05/26 05:12:32;;;;;;;;;;;;;;;14.70;36.51;101612.41;4939101;27;98751;-70
2023/05/26 05:14:58;;;;;;;;;;;;;;;14.86;36.16;101612.44;4936300;27;98378;-63
2023/05/26 05:17:24;;;;;;;;;;;;;;;15.03;36.35;101615.72;4938422;27;98211;-63
2023/05/26 05:19:51;;;;;;;;;;;;;;;15.20;36.03;101613.56;4938719;27;98059;-70
2023/05/26 05:22:17;;;;;;;;;;;;;;;15.38;36.10;101616.84;4935761;27;98038;-63
2023/05/26 05:24:44;;;;;;;;;;;;;;;15.57;35.87;101627.97;4957461;28;98376;-70
2023/05/26 05:27:11;;;;;;;;;;;;;;;15.76;35.86;101617.38;4941284;27;100265;-63
2023/05/26 05:29:37;;;;;;;;;;;;;;;15.93;35.74;101629.56;4955379;28;97984;-70
2023/05/26 05:32:04;;;;;;;;;;;;;;;16.10;35.96;101626.53;4940928;27;98977;-63
2023/05/26 05:34:30;;;;;;;;;;;;;;;16.28;35.76;101627.84;4936756;27;98516;-63
2023/05/26 05:36:56;;;;;;;;;;;;;;;16.39;35.95;101617.75;4952020;27;127730;-70
2023/05/26 05:39:22;;;;;;;;;;;;;;;16.55;35.72;101619.31;4944676;27;97851;-63
2023/05/26 05:41:49;;;;;;;;;;;;;;;16.75;35.55;101621.16;4939899;28;97995;-63
2023/05/26 05:44:15;;;;;;;;;;;;;;;16.97;35.59;101622.63;4926122;27;98244;-63
2023/05/26 05:46:41;;;;;;;;;;;;;;;17.16;35.72;101627.13;4942004;28;98447;-69
2023/05/26 05:49:07;;;;;;;;;;;;;;;17.45;35.64;101620.09;4935573;27;99896;-69
2023/05/26 05:51:35;;;;;;;;;;;;;;;17.74;35.56;101622.84;4941062;27;98341;-63
2023/05/26 05:54:01;;;;;;;;;;;;;;;18.05;35.37;101620.66;4937986;27;98347;-70
2023/05/26 05:56:31;;;;;;;;;;;;;;;18.39;35.23;101629.53;4940376;28;97915;-70
2023/05/26 05:58:58;;;;;;;;;;;;;;;18.83;35.12;101620.22;4941117;27;98268;-63
2023/05/26 06:01:24;;;;;;;;;;;;;;;19.30;35.30;101626.63;4955032;27;97994;-63
2023/05/26 06:03:51;;;;;;;;;;;;;;;19.71;34.96;101634.16;4954991;27;98738;-67
2023/05/26 06:06:18;;;;;;;;;;;;;;;20.18;35.02;101623.16;4956061;27;98697;-70
2023/05/26 06:08:44;;;;;;;;;;;;;;;21.41;33.84;101632.25;4954848;27;98591;-63
2023/05/26 06:11:10;;;;;;;;;;;;;;;21.60;33.76;101632.06;4955089;27;98205;-70
2023/05/26 06:13:37;;;;;;;;;;;;;;;21.07;34.75;101636.34;4939321;27;98031;-63
2023/05/26 06:16:04;;;;;;;;;;;;;;;21.42;34.62;101637.44;4954189;27;98618;-70
2023/05/26 06:18:31;;;;;;;;;;;;;;;22.00;34.30;101636.44;4922172;27;98441;-69
2023/05/26 06:20:57;;;;;;;;;;;;;;;22.55;33.95;101637.94;4936179;27;99515;-69
2023/05/26 06:23:25;;;;;;;;;;;;;;;23.07;33.92;101643.53;4942325;28;98087;-62
2023/05/26 06:25:51;;;;;;;;;;;;;;;23.66;33.98;101643.00;4955280;27;98100;-62
2023/05/26 06:28:17;;;;;;;;;;;;;;;24.70;33.34;101635.06;4941204;27;100364;-70
2023/05/26 06:30:44;;;;;;;;;;;;;;;25.97;32.34;101642.00;4927934;27;98455;-69
2023/05/26 06:33:10;;;;;;;;;;;;;;;26.27;32.64;101652.84;4960487;27;98311;-62
2023/05/26 06:35:37;;;;;;;;;;;;;;;26.52;32.87;101648.13;4961051;28;98768;-70
2023/05/26 06:38:03;;;;;;;;;;;;;;;26.82;32.80;101652.22;4937117;27;98118;-63
2023/05/26 06:40:29;;;;;;;;;;;;;;;27.30;32.79;101650.47;4923509;27;97973;-69
2023/05/26 06:42:55;;;;;;;;;;;;;;;27.11;32.91;101650.31;4945151;27;98607;-69
2023/05/26 06:45:21;;;;;;;;;;;;;;;27.06;32.95;101645.00;4942646;27;97968;-62
2023/05/26 06:47:48;;;;;;;;;;;;;;;27.01;32.82;101645.28;4938327;27;98163;-69
2023/05/26 06:50:14;;;;;;;;;;;;;;;26.80;33.20;101646.25;4945484;27;98071;-62
2023/05/26 06:52:40;;;;;;;;;;;;;;;26.62;33.26;101650.44;4949216;28;98258;-69
2023/05/26 06:55:07;;;;;;;;;;;;;;;26.33;33.44;101637.63;4954879;27;99425;-68
2023/05/26 06:57:33;;;;;;;;;;;;;;;25.90;33.79;101639.84;4959485;27;97940;-62
2023/05/26 06:59:59;;;;;;;;;;;;;;;25.54;34.10;101643.28;4940824;27;128689;-69
2023/05/26 07:02:26;;;;;;;;;;;;;;;25.27;34.35;101644.72;4938319;27;98269;-62
2023/05/26 07:04:52;;;;;;;;;;;;;;;25.11;34.32;101646.44;4943957;27;98189;-63
2023/05/26 07:07:18;;;;;;;;;;;;;;;24.79;34.48;101643.25;4942816;27;98206;-68
2023/05/26 07:09:45;;;;;;;;;;;;;;;24.55;34.55;101656.91;4937337;27;98207;-62
2023/05/26 07:12:11;;;;;;;;;;;;;;;24.39;34.68;101653.91;4946518;27;98902;-62
2023/05/26 07:14:37;;;;;;;;;;;;;;;24.29;34.76;101652.31;4958889;27;98156;-68
2023/05/26 07:17:04;;;;;;;;;;;;;;;24.14;34.51;101650.13;4954723;28;105415;-62
2023/05/26 07:19:29;;;;;;;;;;;;;;;24.19;34.70;101652.69;4943689;27;98942;-62
2023/05/26 07:21:56;;;;;;;;;;;;;;;24.58;34.25;101654.28;4941831;28;98430;-62
2023/05/26 07:24:22;;;;;;;;;;;;;;;24.64;34.30;101652.97;4926669;27;98387;-62
2023/05/26 07:26:48;;;;;;;;;;;;;;;24.87;34.04;101649.88;4975753;27;102039;-68
2023/05/26 07:29:13;;;;;;;;;;;;;;;25.12;34.00;101650.84;4937647;27;104766;-62
2023/05/26 07:31:40;;;;;;;;;;;;;;;25.36;33.55;101648.19;4954774;27;97969;-68
2023/05/26 07:34:07;;;;;;;;;;;;;;;25.60;33.57;101650.22;4956572;27;99028;-62
2023/05/26 07:36:34;;;;;;;;;;;;;;;26.22;32.84;101648.38;4957608;27;98608;-69
2023/05/26 07:39:00;;;;;;;;;;;;;;;26.78;32.72;101645.00;4938446;27;97878;-68
2023/05/26 07:41:26;;;;;;;;;;;;;;;26.86;32.63;101647.59;4954230;27;98062;-69
2023/05/26 07:43:53;;;;;;;;;;;;;;;26.54;33.24;101643.88;4961145;27;98575;-68
2023/05/26 07:46:19;;;;;;;;;;;;;;;26.68;33.22;101657.31;4954517;27;98399;-62
2023/05/26 07:48:46;;;;;;;;;;;;;;;27.42;32.57;101644.06;4943733;27;98009;-62
2023/05/26 07:51:12;;;;;;;;;;;;;;;27.32;32.77;101652.91;4971010;27;98600;-69
2023/05/26 07:53:39;;;;;;;;;;;;;;;27.57;32.82;101653.56;4940794;27;98817;-62
2023/05/26 07:56:05;;;;;;;;;;;;;;;27.98;32.50;101657.84;4937146;28;97974;-63
2023/05/26 07:58:32;;;;;;;;;;;;;;;28.99;31.48;101644.34;4956248;27;97950;-69
2023/05/26 08:00:58;;;;;;;;;;;;;;;27.75;33.03;101651.31;4972427;27;98235;-68
2023/05/26 08:03:24;;;;;;;;;;;;;;;28.85;32.13;101642.06;4935740;27;100204;-66
2023/05/26 08:05:51;;;;;;;;;;;;;;;30.42;30.68;101638.56;4937230;27;98183;-63
2023/05/26 08:08:17;;;;;;;;;;;;;;;31.82;29.79;101643.84;4937536;27;102219;-63
2023/05/26 08:10:43;;;;;;;;;;;;;;;33.10;29.63;101636.31;4955605;27;101289;-70
2023/05/26 08:13:09;;;;;;;;;;;;;;;33.86;29.55;101640.84;4942667;27;98163;-69
2023/05/26 08:15:35;;;;;;;;;;;;;;;34.19;29.73;101636.03;4951246;28;98145;-69
2023/05/26 08:18:01;;;;;;;;;;;;;;;34.07;29.70;101633.66;4924414;27;98057;-61
2023/05/26 08:20:28;;;;;;;;;;;;;;;33.05;30.97;101647.84;4923677;27;98362;-69
2023/05/26 08:22:56;;;;;;;;;;;;;;;33.58;30.21;101638.03;4956411;27;98388;-62
2023/05/26 08:25:22;;;;;;;;;;;;;;;33.96;30.06;101640.03;4938801;27;98084;-68
2023/05/26 08:27:48;;;;;;;;;;;;;;;34.33;30.37;101635.22;4940046;27;98450;-62
2023/05/26 08:30:15;;;;;;;;;;;;;;;34.72;30.08;101632.34;4941166;28;99058;-69
2023/05/26 08:32:41;;;;;;;;;;;;;;;32.72;31.52;101635.72;4937291;27;100314;-69
2023/05/26 08:35:08;;;;;;;;;;;;;;;32.09;32.02;101631.34;4970889;27;99178;-69
2023/05/26 08:37:34;;;;;;;;;;;;;;;31.47;32.31;101631.16;4943980;27;98256;-63
2023/05/26 08:40:04;;;;;;;;;;;;;;;32.78;30.89;101638.13;4936259;27;99258;-62
2023/05/26 08:42:35;;;;;;;;;;;;;;;33.90;29.98;101627.66;4936638;27;98238;-62
2023/05/26 08:45:02;;;;;;;;;;;;;;;34.75;29.93;101628.72;4940527;28;98199;-62
2023/05/26 08:47:31;;;;;;;;;;;;;;;35.00;29.69;101625.84;4930380;28;98111;-69
2023/05/26 08:50:00;;;;;;;;;;;;;;;34.97;29.89;101628.63;4940023;27;99863;-63
2023/05/26 08:52:27;;;;;;;;;;;;;;;34.52;30.35;101625.63;4944868;27;98187;-69
2023/05/26 08:54:53;;;;;;;;;;;;;;;34.55;30.49;101619.22;4969981;27;98821;-62
2023/05/26 08:57:20;;;;;;;;;;;;;;;36.43;28.79;101626.72;4942056;28;98166;-69
2023/05/26 08:59:49;;;;;;;;;;;;;;;37.53;28.26;101624.50;4929509;27;98269;-69
2023/05/26 09:02:17;;;;;;;;;;;;;;;37.82;28.45;101627.63;4934308;28;98990;-62
2023/05/26 09:04:43;;;;;;;;;;;;;;;38.69;27.94;101622.00;4944696;27;98275;-70
2023/05/26 09:07:10;;;;;;;;;;;;;;;38.71;28.47;101625.16;4935642;28;97928;-71
2023/05/26 09:09:36;;;;;;;;;;;;;;;38.76;28.08;101617.00;4941398;27;98655;-62
2023/05/26 09:12:12;;;;;;;;;;;;;;;39.82;27.90;101617.81;4935804;27;98962;-63
2023/05/26 09:14:39;;;;;;;;;;;;;;;40.57;27.61;101624.25;4949689;28;100018;-70
2023/05/26 09:17:06;;;;;;;;;;;;;;;40.43;27.79;101610.50;4957241;27;98029;-70
2023/05/26 09:19:33;;;;;;;;;;;;;;;39.68;28.54;101616.13;4927397;28;99329;-63
2023/05/26 09:22:05;;;;;;;;;;;;;;;39.04;28.86;101612.78;4952339;27;98192;-63
2023/05/26 09:24:42;;;;;;;;;;;;;;;39.24;29.04;101609.16;4936757;28;98513;-70
2023/05/26 09:27:15;;;;;;;;;;;;;;;39.34;28.94;101610.94;4936978;28;99844;-63
2023/05/26 09:29:55;;;;;;;;;;;;;;;39.88;28.67;101616.03;4969393;27;98491;-71
2023/05/26 09:32:32;;;;;;;;;;;;;;;41.05;28.02;101619.59;4956254;27;98495;-63
2023/05/26 09:35:00;;;;;;;;;;;;;;;42.07;26.95;101610.97;4942806;27;100522;-63
2023/05/26 09:37:28;;;;;;;;;;;;;;;42.96;26.96;101614.53;4947830;28;99663;-63
2023/05/26 09:39:58;;;;;;;;;;;;;;;43.67;26.51;101608.81;4929379;27;98045;-64
2023/05/26 09:42:24;;;;;;;;;;;;;;;44.15;26.30;101603.47;4935250;27;98186;-64
2023/05/26 09:44:51;;;;;;;;;;;;;;;44.57;25.98;101606.44;4939301;27;99426;-70
2023/05/26 09:47:21;;;;;;;;;;;;;;;44.93;26.00;101610.44;4937775;28;98143;-63
2023/05/26 09:49:47;;;;;;;;;;;;;;;45.02;26.13;101599.00;4951522;27;98294;-70
2023/05/26 09:52:14;;;;;;;;;;;;;;;45.29;26.25;101600.16;4938224;28;98091;-64
2023/05/26 09:54:41;;;;;;;;;;;;;;;45.54;26.12;101596.84;4932628;27;98196;-64
2023/05/26 09:57:11;;;;;;;;;;;;;;;46.02;26.00;101596.00;4955886;27;99425;-63
2023/05/26 09:59:38;;;;;;;;;;;;;;;46.34;25.80;101604.91;4937153;27;97960;-64
2023/05/26 10:02:11;;;;;;;;;;;;;;;46.57;25.80;101604.03;4937037;28;99306;-64
2023/05/26 10:04:37;;;;;;;;;;;;;;;46.61;26.10;101603.84;4951777;27;98090;-64
2023/05/26 10:07:04;;;;;;;;;;;;;;;46.62;26.19;101597.66;4927989;28;99449;-64
2023/05/26 10:09:31;;;;;;;;;;;;;;;46.81;25.61;101600.25;4940392;28;97896;-71
2023/05/26 10:11:57;;;;;;;;;;;;;;;46.94;25.65;101595.84;4937234;28;100193;-70
2023/05/26 10:14:23;;;;;;;;;;;;;;;47.00;25.99;101593.06;4924100;28;98080;-71
2023/05/26 10:16:50;;;;;;;;;;;;;;;47.00;26.04;101595.94;4959592;27;98118;-71
2023/05/26 10:19:17;;;;;;;;;;;;;;;46.94;25.67;101587.31;4943389;27;99457;-64
2023/05/26 10:21:47;;;;;;;;;;;;;;;46.69;26.28;101583.00;4944956;27;98329;-63
2023/05/26 10:24:47;;;;;;;;;;;;;;;46.61;26.36;101569.63;4955877;27;98322;-71
2023/05/26 10:27:36;;;;;;;;;;;;;;;46.73;25.96;101563.63;4964871;27;98413;-66
2023/05/26 10:30:11;;;;;;;;;;;;;;;47.04;26.21;101570.84;4955462;28;98742;-63
2023/05/26 10:32:53;;;;;;;;;;;;;;;46.94;26.27;101566.53;4941743;28;98334;-63
2023/05/26 10:35:21;;;;;;;;;;;;;;;47.25;25.46;101563.09;4956627;27;99499;-70
2023/05/26 10:38:02;;;;;;;;;;;;;;;47.11;25.84;101561.88;4960871;27;97935;-71
2023/05/26 10:40:32;;;;;;;;;;;;;;;47.28;25.65;101559.22;4950436;27;98085;-71
2023/05/26 10:43:00;;;;;;;;;;;;;;;47.15;26.06;101558.81;4959564;27;98124;-71
2023/05/26 10:45:32;;;;;;;;;;;;;;;46.98;25.81;101570.75;4955937;27;98311;-71
2023/05/26 10:48:11;;;;;;;;;;;;;;;46.97;26.10;101562.72;4957139;27;98293;-70
2023/05/26 10:50:55;;;;;;;;;;;;;;;46.51;26.16;101564.03;4944383;27;98185;-63
2023/05/26 10:53:21;;;;;;;;;;;;;;;46.26;26.42;101573.16;4975130;27;98214;-70
2023/05/26 10:55:59;;;;;;;;;;;;;;;45.96;26.38;101564.59;4921648;27;98182;-71
2023/05/26 10:58:36;;;;;;;;;;;;;;;45.66;26.42;101560.88;4955832;27;99395;-64
2023/05/26 11:01:08;;;;;;;;;;;;;;;45.25;27.11;101568.28;4954692;27;98496;-70
2023/05/26 11:03:42;;;;;;;;;;;;;;;44.95;26.99;101551.03;4959704;27;98210;-70
2023/05/26 11:06:10;;;;;;;;;;;;;;;44.68;27.10;101551.94;4932125;27;98255;-68
2023/05/26 11:08:48;;;;;;;;;;;;;;;44.66;26.93;101551.66;4955396;28;98510;-62
2023/05/26 11:11:41;;;;;;;;;;;;;;;44.70;27.03;101551.47;4973206;27;98110;-69
2023/05/26 11:14:12;;;;;;;;;;;;;;;44.45;27.05;101547.75;4945859;27;98892;-70
2023/05/26 11:16:40;;;;;;;;;;;;;;;44.22;27.02;101548.44;4939728;28;98227;-63
2023/05/26 11:19:07;;;;;;;;;;;;;;;43.83;27.29;101543.25;4934965;27;99265;-63
2023/05/26 11:21:34;;;;;;;;;;;;;;;43.56;27.13;101546.06;4955072;27;105182;-64
2023/05/26 11:24:01;;;;;;;;;;;;;;;43.33;27.18;101541.75;4938440;27;99824;-63
2023/05/26 11:26:30;;;;;;;;;;;;;;;42.99;27.42;101535.03;4960176;27;98419;-69
2023/05/26 11:28:56;;;;;;;;;;;;;;;42.59;27.77;101538.63;4957445;27;98230;-63
2023/05/26 11:31:25;;;;;;;;;;;;;;;42.32;27.99;101525.13;4941134;27;98119;-69
2023/05/26 11:33:51;;;;;;;;;;;;;;;41.87;27.96;101536.91;4954635;27;98290;-63
2023/05/26 11:36:19;;;;;;;;;;;;;;;41.34;28.33;101536.69;4956708;27;98351;-61
2023/05/26 11:38:47;;;;;;;;;;;;;;;40.96;28.60;101535.47;4941223;27;98378;-69
2023/05/26 11:41:17;;;;;;;;;;;;;;;40.57;28.66;101530.28;4938277;27;98059;-63
2023/05/26 11:43:46;;;;;;;;;;;;;;;40.20;28.89;101538.97;4956497;27;99260;-69
2023/05/26 11:46:14;;;;;;;;;;;;;;;39.93;28.98;101536.50;4953123;28;98285;-63
2023/05/26 11:48:42;;;;;;;;;;;;;;;39.74;28.93;101528.97;4954720;28;98128;-63
2023/05/26 11:51:14;;;;;;;;;;;;;;;39.75;28.57;101531.34;4957464;27;98599;-63
2023/05/26 11:53:41;;;;;;;;;;;;;;;39.92;28.41;101529.25;4941660;27;100084;-70
2023/05/26 11:56:09;;;;;;;;;;;;;;;39.94;28.26;101529.63;4937887;27;98651;-70
2023/05/26 11:58:46;;;;;;;;;;;;;;;39.87;28.06;101524.16;4923514;28;98412;-69
2023/05/26 12:01:12;;;;;;;;;;;;;;;39.85;28.05;101523.03;4924784;27;99044;-62
2023/05/26 12:03:44;;;;;;;;;;;;;;;39.71;28.04;101515.75;4955288;27;100324;-62
2023/05/26 12:06:20;;;;;;;;;;;;;;;39.60;28.40;101520.88;4957351;27;99523;-69
2023/05/26 12:08:56;;;;;;;;;;;;;;;39.32;28.24;101516.75;4954933;28;98962;-69
2023/05/26 12:11:23;;;;;;;;;;;;;;;39.00;28.38;101530.38;4945389;27;98371;-69
2023/05/26 12:13:55;;;;;;;;;;;;;;;38.58;28.55;101518.03;4959311;28;98163;-62
2023/05/26 12:16:31;;;;;;;;;;;;;;;38.28;28.97;101524.69;4956064;28;110928;-62
2023/05/26 12:19:10;;;;;;;;;;;;;;;37.90;28.76;101524.28;4940258;27;98194;-63
2023/05/26 12:21:49;;;;;;;;;;;;;;;37.53;29.07;101517.66;4938606;27;98116;-62
2023/05/26 12:24:29;;;;;;;;;;;;;;;37.17;29.49;101523.06;4955230;27;98178;-69
2023/05/26 12:26:56;;;;;;;;;;;;;;;36.87;29.35;101513.50;4924043;27;98027;-69
2023/05/26 12:29:23;;;;;;;;;;;;;;;36.66;29.88;101511.75;4941314;27;98291;-63
2023/05/26 12:31:50;;;;;;;;;;;;;;;36.50;29.82;101520.00;4946760;27;98693;-62
2023/05/26 12:34:20;;;;;;;;;;;;;;;36.33;29.70;101517.00;4940267;27;98553;-62
2023/05/26 12:36:47;;;;;;;;;;;;;;;36.17;29.79;101521.63;4954659;28;98554;-62
2023/05/26 12:39:14;;;;;;;;;;;;;;;35.95;29.85;101515.41;4935346;28;99785;-62
2023/05/26 12:41:41;;;;;;;;;;;;;;;35.74;29.77;101522.84;4950270;28;99491;-69